Hlavní strana
METAR-TAF:

METAR-TAF

Letiště :

Burlington-Alamance Regional Airport

Burlington, Severní Karolína, Spojené státy americké

zeměpisná šířka: 36-02-52N, zeměpisná délka: 079-28-26W, výška: 188 m

Aktuální stav počasí

Zpráva byla vytvořena před 37 minutami, v 21:54 UTC
Jihozápadní vítr 8 kt
Teplota 14°C
Vlhkost vzduchu 63%
Tlak 1000 hPa
Viditelnost: 16.1 km
Zataženo ve výšce 4800 ft

METAR: KBUY 302154Z AUTO 22008KT 10SM OVC048 14/07 A2954 RMK AO2 SLP000 T01390072

Čas: 17:31 (22:31 UTC)


TAF: chybějící

Stav a předpovědi počasí z více než 4 000 letišť (zprávy METAR a TAF).

Červené a žluté tečky na mapě představují dostupné meteorologické stanice.

Když kurzor umístíte na tečku, zobrazí se název stanice.

Pak kliknutím zobrazíte stav a předpověď počasí.

Chcete-li změnit mapu, kliknutím na zelené tlačítko se znaménkem +mapu přiblížíte, kliknutím na zelené tlačítko se znaménkem – mapu oddálíte a kliknutím na zelené šipky přejdete na sousední mapy.


METAR-TAF: